createdAt,value
2023-05-23T00:03:54.111Z,102097.06
2023-05-23T00:08:46.386Z,102103.19
2023-05-23T00:13:36.440Z,102109.56
2023-05-23T00:18:26.648Z,102106.59
2023-05-23T00:23:19.589Z,102114.03
2023-05-23T00:28:11.870Z,102111.75
2023-05-23T00:33:01.840Z,102117.78
2023-05-23T00:37:52.077Z,102109.78
2023-05-23T00:42:41.916Z,102120.88
2023-05-23T00:47:34.798Z,102121.47
2023-05-23T00:52:25.121Z,102127.66
2023-05-23T00:57:15.335Z,102121.47
2023-05-23T01:02:05.486Z,102123.88
2023-05-23T01:06:58.708Z,102131.44
2023-05-23T01:11:55.066Z,102130.09
2023-05-23T01:16:49.539Z,102131.63
2023-05-23T01:21:40.025Z,102126.22
2023-05-23T01:26:48.429Z,102134.31
2023-05-23T01:31:43.732Z,102134.63
2023-05-23T01:36:36.286Z,102134.63
2023-05-23T01:41:29.242Z,102124.88
2023-05-23T01:46:19.898Z,102131.78
2023-05-23T01:51:12.264Z,102138.94
2023-05-23T01:56:03.705Z,102137.09
2023-05-23T02:00:53.691Z,102144.88
2023-05-23T02:05:43.596Z,102141.97
2023-05-23T02:10:36.323Z,102146.19
2023-05-23T02:15:26.169Z,102152.56
2023-05-23T02:20:16.105Z,102146.31
2023-05-23T02:25:05.721Z,102151.56
2023-05-23T02:29:58.456Z,102147.72
2023-05-23T02:34:51.185Z,102156.97
2023-05-23T02:39:41.357Z,102156.09
2023-05-23T02:44:33.424Z,102161.41
2023-05-23T02:49:25.849Z,102178.53
2023-05-23T02:54:16.075Z,102177.13
2023-05-23T02:59:06.151Z,102181.84
2023-05-23T03:03:55.822Z,102176.78
2023-05-23T03:08:48.479Z,102175.91
2023-05-23T03:13:38.194Z,102175.56
2023-05-23T03:18:27.940Z,102172.09
2023-05-23T03:23:18.498Z,102180.16
2023-05-23T03:28:12.407Z,102186.72
2023-05-23T03:33:03.370Z,102172.81
2023-05-23T03:37:56.587Z,102179.38
2023-05-23T03:42:46.169Z,102180.63
2023-05-23T03:47:38.631Z,102196.69
2023-05-23T03:52:28.849Z,102195.25
2023-05-23T03:57:18.634Z,102194.66
2023-05-23T04:02:08.907Z,102194.66
2023-05-23T04:07:02.843Z,102217.59
2023-05-23T04:11:53.146Z,102220.56
2023-05-23T04:16:45.292Z,102226.44
2023-05-23T04:21:36.350Z,102222.97
2023-05-23T04:26:33.181Z,102231.31
2023-05-23T04:31:23.438Z,102242.94
2023-05-23T04:36:16.567Z,102241.31
2023-05-23T04:41:12.259Z,102250.63
2023-05-23T04:46:16.906Z,102257.16
2023-05-23T04:51:09.489Z,102256.22
2023-05-23T04:56:04.174Z,102267.34
2023-05-23T05:00:55.027Z,102272.06
2023-05-23T05:05:47.364Z,102288.78
2023-05-23T05:10:38.937Z,102292.16
2023-05-23T05:15:29.643Z,102287.81
2023-05-23T05:20:22.066Z,102274.13
2023-05-23T05:25:15.894Z,102303.00
2023-05-23T05:30:07.662Z,102287.25
2023-05-23T05:35:08.011Z,102306.47
2023-05-23T05:39:59.444Z,102301.75
2023-05-23T05:44:53.546Z,102311.66
2023-05-23T05:49:43.984Z,102299.75
2023-05-23T05:54:34.037Z,102322.34
2023-05-23T05:59:24.202Z,102335.03
2023-05-23T06:04:17.044Z,102327.41
2023-05-23T06:09:07.771Z,102337.31
2023-05-23T06:13:58.892Z,102334.38
2023-05-23T06:18:49.197Z,102346.28
2023-05-23T06:23:41.973Z,102351.97
2023-05-23T06:28:32.370Z,102336.63
2023-05-23T06:33:23.210Z,102352.06
2023-05-23T06:38:17.653Z,102353.91
2023-05-23T06:43:11.311Z,102356.19
2023-05-23T06:48:23.933Z,102350.72
2023-05-23T06:53:15.325Z,102357.25
2023-05-23T06:58:07.143Z,102342.53
2023-05-23T07:03:04.001Z,102365.16
2023-05-23T07:07:54.249Z,102379.16
2023-05-23T07:12:44.249Z,102374.84
2023-05-23T07:17:36.544Z,102382.56
2023-05-23T07:22:29.514Z,102385.44
2023-05-23T07:27:19.913Z,102396.63
2023-05-23T07:32:11.355Z,102406.97
2023-05-23T07:37:01.423Z,102387.38
2023-05-23T07:42:00.835Z,102399.97
2023-05-23T07:46:51.412Z,102394.69
2023-05-23T07:51:42.099Z,102389.91
2023-05-23T07:56:33.524Z,102390.97
2023-05-23T08:01:26.193Z,102410.06
2023-05-23T08:06:27.041Z,102399.47
2023-05-23T08:11:22.333Z,102421.41
2023-05-23T08:16:14.699Z,102422.16
2023-05-23T08:21:08.664Z,102424.06
2023-05-23T08:25:59.187Z,102412.50
2023-05-23T08:30:49.949Z,102420.41
2023-05-23T08:35:42.184Z,102430.44
2023-05-23T08:40:38.858Z,102424.91
2023-05-23T08:45:35.086Z,102423.22
2023-05-23T08:50:26.705Z,102440.03
2023-05-23T08:55:20.478Z,102423.34
2023-05-23T09:00:16.882Z,102448.66
2023-05-23T09:05:07.859Z,102429.41
2023-05-23T09:09:58.446Z,102434.41
2023-05-23T09:14:48.604Z,102423.84
2023-05-23T09:19:44.282Z,102444.66
2023-05-23T09:24:47.836Z,102445.94
2023-05-23T09:29:41.664Z,102452.69
2023-05-23T09:34:32.037Z,102443.56
2023-05-23T09:39:24.618Z,102454.56
2023-05-23T09:44:14.756Z,102462.97
2023-05-23T09:49:04.687Z,102453.31
2023-05-23T09:53:55.510Z,102458.19
2023-05-23T09:58:49.608Z,102455.25
2023-05-23T10:03:45.613Z,102454.41
2023-05-23T10:08:41.955Z,102463.84
2023-05-23T10:13:33.196Z,102469.47
2023-05-23T10:18:27.996Z,102461.53
2023-05-23T10:23:18.662Z,102469.22
2023-05-23T10:28:08.442Z,102456.25
2023-05-23T10:33:01.486Z,102472.91
2023-05-23T10:37:59.060Z,102484.25
2023-05-23T10:42:54.099Z,102479.81
2023-05-23T10:47:43.909Z,102479.41
2023-05-23T10:52:41.942Z,102469.47
2023-05-23T10:57:34.512Z,102464.94
2023-05-23T11:02:28.582Z,102482.50
2023-05-23T11:07:33.421Z,102471.91
2023-05-23T11:12:39.426Z,102482.94
2023-05-23T11:17:37.235Z,102480.78
2023-05-23T11:22:30.407Z,102492.78
2023-05-23T11:27:20.484Z,102489.22
2023-05-23T11:32:17.817Z,102499.63
2023-05-23T11:37:07.926Z,102489.44
2023-05-23T11:42:04.142Z,102497.38
2023-05-23T11:47:02.039Z,102503.09
2023-05-23T11:51:54.394Z,102494.53
2023-05-23T11:56:44.073Z,102501.84
2023-05-23T12:01:34.904Z,102502.59
2023-05-23T12:06:25.133Z,102498.78
2023-05-23T12:11:18.744Z,102488.94
2023-05-23T12:16:09.820Z,102503.47
2023-05-23T12:21:03.523Z,102512.03
2023-05-23T12:25:56.508Z,102509.34
2023-05-23T12:30:49.761Z,102500.94
2023-05-23T12:35:39.641Z,102507.44
2023-05-23T12:40:29.531Z,102504.44
2023-05-23T12:45:19.232Z,102508.31
2023-05-23T12:50:12.506Z,102507.16
2023-05-23T12:55:02.170Z,102512.22
2023-05-23T12:59:52.135Z,102507.31
2023-05-23T13:04:41.797Z,102510.56
2023-05-23T13:09:34.064Z,102504.16
2023-05-23T13:14:23.900Z,102500.59
2023-05-23T13:19:13.510Z,102506.00
2023-05-23T13:24:03.249Z,102508.19
2023-05-23T13:28:55.583Z,102513.34
2023-05-23T13:33:45.314Z,102513.13
2023-05-23T13:38:34.960Z,102515.84
2023-05-23T13:43:24.799Z,102511.72
2023-05-23T13:48:17.023Z,102506.50
2023-05-23T13:53:12.435Z,102529.47
2023-05-23T13:58:02.170Z,102520.38
2023-05-23T14:02:51.813Z,102524.69
2023-05-23T14:07:47.467Z,102528.53
2023-05-23T14:12:40.773Z,102513.50
2023-05-23T14:17:30.805Z,102512.22
2023-05-23T14:22:20.925Z,102508.75
2023-05-23T14:27:13.336Z,102506.41
2023-05-23T14:32:04.383Z,102516.56
2023-05-23T14:36:56.696Z,102505.59
2023-05-23T14:41:47.052Z,102525.91
2023-05-23T14:46:39.423Z,102509.66
2023-05-23T14:51:44.710Z,102510.63
2023-05-23T14:56:38.496Z,102516.72
2023-05-23T15:01:28.330Z,102517.69
2023-05-23T15:06:20.736Z,102519.50
2023-05-23T15:11:10.457Z,102517.34
2023-05-23T15:16:00.875Z,102525.38
2023-05-23T15:20:50.671Z,102519.94
2023-05-23T15:30:36.457Z,102521.63
2023-05-23T15:35:26.311Z,102526.81
2023-05-23T15:40:15.926Z,102525.38
2023-05-23T15:45:08.562Z,102533.66
2023-05-23T15:49:58.262Z,102529.69
2023-05-23T15:54:47.864Z,102529.81
2023-05-23T15:59:39.337Z,102527.53
2023-05-23T16:04:31.597Z,102535.34
2023-05-23T16:09:21.137Z,102536.41
2023-05-23T16:14:10.918Z,102539.44
2023-05-23T16:19:00.622Z,102542.28
2023-05-23T16:23:53.292Z,102546.59
2023-05-23T16:28:43.811Z,102538.16
2023-05-23T16:33:33.627Z,102531.34
2023-05-23T16:38:23.180Z,102530.03
2023-05-23T16:43:15.565Z,102533.81
2023-05-23T16:48:05.184Z,102527.22
2023-05-23T16:52:55.537Z,102521.78
2023-05-23T16:57:45.160Z,102527.28
2023-05-23T17:02:37.409Z,102529.34
2023-05-23T17:07:30.152Z,102523.50
2023-05-23T17:12:19.954Z,102528.63
2023-05-23T17:17:09.667Z,102531.31
2023-05-23T17:22:03.874Z,102547.91
2023-05-23T17:26:54.597Z,102538.63
2023-05-23T17:31:44.604Z,102531.81
2023-05-23T17:36:35.291Z,102538.69
2023-05-23T17:41:27.926Z,102538.69
2023-05-23T17:46:17.657Z,102556.41
2023-05-23T17:51:07.437Z,102541.22
2023-05-23T17:55:57.289Z,102549.91
2023-05-23T18:00:50.488Z,102544.22
2023-05-23T18:05:41.277Z,102548.22
2023-05-23T18:10:34.207Z,102556.72
2023-05-23T18:15:25.807Z,102568.03
2023-05-23T18:20:18.275Z,102556.19
2023-05-23T18:25:08.567Z,102558.38
2023-05-23T18:29:58.346Z,102565.13
2023-05-23T18:34:47.995Z,102561.63
2023-05-23T18:39:40.394Z,102566.97
2023-05-23T18:44:30.102Z,102560.47
2023-05-23T18:49:19.723Z,102570.97
2023-05-23T18:54:09.398Z,102566.78
2023-05-23T18:59:01.690Z,102569.16
2023-05-23T19:03:51.570Z,102571.34
2023-05-23T19:08:41.299Z,102583.50
2023-05-23T19:13:31.153Z,102582.25
2023-05-23T19:18:26.561Z,102589.91
2023-05-23T19:23:16.478Z,102605.00
2023-05-23T19:28:06.285Z,102595.53
2023-05-23T19:32:56.008Z,102604.75
2023-05-23T19:37:49.512Z,102615.06
2023-05-23T19:42:39.151Z,102621.13
2023-05-23T19:47:30.811Z,102611.47
2023-05-23T19:52:20.865Z,102616.56
2023-05-23T19:57:13.089Z,102628.59
2023-05-23T20:02:02.866Z,102635.31
2023-05-23T20:06:52.638Z,102643.03
2023-05-23T20:11:43.114Z,102647.00
2023-05-23T20:16:35.578Z,102651.88
2023-05-23T20:21:25.182Z,102646.81
2023-05-23T20:26:14.886Z,102660.56
2023-05-23T20:31:04.578Z,102653.59
2023-05-23T20:35:59.800Z,102649.44
2023-05-23T20:40:52.476Z,102643.34
2023-05-23T20:45:43.090Z,102626.41
2023-05-23T20:50:35.225Z,102625.47
2023-05-23T20:55:29.199Z,102631.00
2023-05-23T21:00:21.999Z,102632.84
2023-05-23T21:05:12.734Z,102637.50
2023-05-23T21:10:02.366Z,102633.41
2023-05-23T21:14:54.725Z,102626.44
2023-05-23T21:19:44.367Z,102639.22
2023-05-23T21:24:34.091Z,102636.06
2023-05-23T21:29:23.747Z,102640.72
2023-05-23T21:34:24.024Z,102639.03
2023-05-23T21:39:15.718Z,102639.91
2023-05-23T21:44:05.462Z,102649.91
2023-05-23T21:48:55.165Z,102640.06
2023-05-23T21:53:47.454Z,102642.75
2023-05-23T21:58:38.181Z,102641.94
2023-05-23T22:03:28.292Z,102624.94
2023-05-23T22:08:18.233Z,102649.50
2023-05-23T22:13:10.544Z,102646.16
2023-05-23T22:18:00.319Z,102645.38
2023-05-23T22:22:50.057Z,102626.94
2023-05-23T22:27:39.793Z,102636.00
2023-05-23T22:32:32.147Z,102639.66
2023-05-23T22:37:22.117Z,102624.63
2023-05-23T22:42:11.990Z,102636.38
2023-05-23T22:47:04.006Z,102640.13
2023-05-23T22:51:56.958Z,102643.03
2023-05-23T22:56:48.117Z,102637.75
2023-05-23T23:01:37.818Z,102653.88
2023-05-23T23:06:27.700Z,102640.44
2023-05-23T23:11:20.453Z,102637.75
2023-05-23T23:16:11.173Z,102632.41
2023-05-23T23:21:00.775Z,102640.50
2023-05-23T23:25:50.584Z,102643.34
2023-05-23T23:30:44.030Z,102643.25
2023-05-23T23:35:35.654Z,102641.59
2023-05-23T23:40:25.287Z,102641.66
2023-05-23T23:45:14.962Z,102648.91
2023-05-23T23:50:07.540Z,102638.25
2023-05-23T23:54:57.315Z,102623.09
2023-05-23T23:59:47.128Z,102623.09
